createdAt,value
2023-04-02T00:01:00.780Z,43.16
2023-04-02T00:03:27.214Z,43.20
2023-04-02T00:05:53.661Z,43.23
2023-04-02T00:08:20.124Z,43.05
2023-04-02T00:10:46.567Z,43.46
2023-04-02T00:13:12.901Z,43.61
2023-04-02T00:15:39.241Z,43.40
2023-04-02T00:18:05.625Z,43.51
2023-04-02T00:20:32.000Z,43.29
2023-04-02T00:22:58.341Z,43.85
2023-04-02T00:25:24.715Z,43.79
2023-04-02T00:27:51.018Z,43.80
2023-04-02T00:30:17.636Z,43.79
2023-04-02T00:32:44.053Z,43.95
2023-04-02T00:35:10.423Z,43.87
2023-04-02T00:37:36.772Z,43.87
2023-04-02T00:40:03.168Z,43.84
2023-04-02T00:42:29.693Z,43.88
2023-04-02T00:44:56.009Z,44.15
2023-04-02T00:47:22.363Z,43.96
2023-04-02T00:49:48.726Z,44.25
2023-04-02T00:52:15.052Z,43.71
2023-04-02T00:54:41.425Z,44.02
2023-04-02T00:57:07.812Z,44.06
2023-04-02T00:59:34.179Z,43.77
2023-04-02T01:02:00.562Z,43.77
2023-04-02T01:04:26.960Z,43.74
2023-04-02T01:06:53.339Z,43.82
2023-04-02T01:09:19.754Z,43.89
2023-04-02T01:11:46.132Z,43.79
2023-04-02T01:14:12.449Z,43.81
2023-04-02T01:16:39.304Z,43.83
2023-04-02T01:19:05.654Z,43.93
2023-04-02T01:21:32.074Z,44.07
2023-04-02T01:23:58.541Z,43.71
2023-04-02T01:26:24.856Z,43.90
2023-04-02T01:28:51.198Z,43.79
2023-04-02T01:31:17.715Z,43.92
2023-04-02T01:33:44.120Z,44.01
2023-04-02T01:36:10.561Z,43.96
2023-04-02T01:38:37.026Z,44.23
2023-04-02T01:41:03.411Z,44.06
2023-04-02T01:43:29.750Z,44.14
2023-04-02T01:45:56.184Z,44.02
2023-04-02T01:48:22.730Z,43.95
2023-04-02T01:50:49.214Z,44.21
2023-04-02T01:53:15.607Z,44.16
2023-04-02T01:55:42.009Z,43.93
2023-04-02T01:58:08.336Z,44.11
2023-04-02T02:00:35.632Z,44.26
2023-04-02T02:03:02.240Z,44.07
2023-04-02T02:05:29.346Z,43.92
2023-04-02T02:07:56.538Z,44.01
2023-04-02T02:10:22.984Z,44.14
2023-04-02T02:12:49.319Z,43.96
2023-04-02T02:15:15.673Z,44.15
2023-04-02T02:17:42.019Z,43.97
2023-04-02T02:20:08.340Z,43.95
2023-04-02T02:22:34.786Z,44.16
2023-04-02T02:25:01.118Z,44.38
2023-04-02T02:27:27.478Z,43.95
2023-04-02T02:30:02.726Z,43.99
2023-04-02T02:32:29.463Z,44.07
2023-04-02T02:34:56.398Z,43.96
2023-04-02T02:37:23.608Z,44.48
2023-04-02T02:39:50.575Z,44.09
2023-04-02T02:42:16.957Z,44.15
2023-04-02T02:44:43.749Z,44.10
2023-04-02T02:47:10.343Z,44.10
2023-04-02T02:49:36.710Z,44.04
2023-04-02T02:52:04.286Z,43.99
2023-04-02T02:54:37.763Z,44.38
2023-04-02T02:57:04.303Z,44.37
2023-04-02T02:59:30.979Z,44.19
2023-04-02T03:01:57.934Z,44.38
2023-04-02T03:04:24.443Z,44.42
2023-04-02T03:06:53.925Z,44.20
2023-04-02T03:09:22.081Z,44.37
2023-04-02T03:11:48.480Z,44.35
2023-04-02T03:14:18.746Z,44.29
2023-04-02T03:16:45.267Z,44.47
2023-04-02T03:19:12.296Z,44.51
2023-04-02T03:21:38.637Z,44.54
2023-04-02T03:24:04.996Z,44.50
2023-04-02T03:26:31.391Z,44.49
2023-04-02T03:28:58.655Z,44.64
2023-04-02T03:31:25.284Z,44.50
2023-04-02T03:33:52.721Z,44.64
2023-04-02T03:36:19.188Z,44.43
2023-04-02T03:38:45.736Z,44.43
2023-04-02T03:41:13.466Z,44.53
2023-04-02T03:43:39.861Z,44.65
2023-04-02T03:46:07.312Z,44.50
2023-04-02T03:48:33.762Z,44.62
2023-04-02T03:51:00.192Z,44.75
2023-04-02T03:53:26.751Z,44.27
2023-04-02T03:55:53.363Z,44.52
2023-04-02T03:58:19.675Z,44.59
2023-04-02T04:00:46.415Z,44.58
2023-04-02T04:03:12.894Z,44.58
2023-04-02T04:05:39.594Z,44.36
2023-04-02T04:08:05.988Z,44.45
2023-04-02T04:10:32.344Z,44.54
2023-04-02T04:12:58.683Z,44.49
2023-04-02T04:15:25.047Z,44.18
2023-04-02T04:17:51.655Z,44.39
2023-04-02T04:20:20.383Z,44.52
2023-04-02T04:22:46.862Z,44.14
2023-04-02T04:25:18.866Z,44.43
2023-04-02T04:27:45.641Z,44.48
2023-04-02T04:30:12.016Z,45.01
2023-04-02T04:32:39.649Z,44.67
2023-04-02T04:35:12.560Z,44.64
2023-04-02T04:37:39.559Z,44.71
2023-04-02T04:40:09.309Z,44.72
2023-04-02T04:42:35.658Z,44.48
2023-04-02T04:45:04.788Z,44.81
2023-04-02T04:47:31.299Z,44.87
2023-04-02T04:49:59.038Z,44.67
2023-04-02T04:52:25.512Z,44.86
2023-04-02T04:54:51.987Z,44.82
2023-04-02T04:57:23.022Z,44.57
2023-04-02T04:59:49.402Z,44.63
2023-04-02T05:02:15.834Z,44.68
2023-04-02T05:04:43.011Z,44.95
2023-04-02T05:07:13.631Z,44.87
2023-04-02T05:09:43.251Z,44.80
2023-04-02T05:12:13.042Z,44.68
2023-04-02T05:14:39.409Z,44.97
2023-04-02T05:17:06.348Z,45.02
2023-04-02T05:19:32.691Z,44.95
2023-04-02T05:21:59.275Z,44.72
2023-04-02T05:24:25.845Z,44.77
2023-04-02T05:26:53.634Z,44.87
2023-04-02T05:29:19.986Z,44.60
2023-04-02T05:31:47.142Z,44.83
2023-04-02T05:34:13.509Z,44.72
2023-04-02T05:36:40.077Z,44.88
2023-04-02T05:39:06.514Z,45.14
2023-04-02T05:41:42.595Z,44.98
2023-04-02T05:44:08.993Z,45.37
2023-04-02T05:46:35.362Z,45.70
2023-04-02T05:49:01.735Z,45.99
2023-04-02T05:51:28.519Z,45.72
2023-04-02T05:53:55.244Z,46.01
2023-04-02T05:56:21.644Z,45.99
2023-04-02T05:58:50.110Z,45.92
2023-04-02T06:01:24.818Z,45.77
2023-04-02T06:03:52.735Z,45.81
2023-04-02T06:06:19.496Z,45.61
2023-04-02T06:08:45.865Z,45.75
2023-04-02T06:11:12.331Z,45.64
2023-04-02T06:13:40.668Z,45.59
2023-04-02T06:16:07.446Z,45.47
2023-04-02T06:18:33.886Z,45.45
2023-04-02T06:21:00.198Z,45.52
2023-04-02T06:23:27.486Z,45.42
2023-04-02T06:25:55.273Z,45.30
2023-04-02T06:28:22.974Z,45.29
2023-04-02T06:30:51.873Z,45.17
2023-04-02T06:33:19.112Z,45.26
2023-04-02T06:35:46.437Z,45.11
2023-04-02T06:38:15.542Z,45.15
2023-04-02T06:40:41.935Z,45.19
2023-04-02T06:43:13.690Z,44.81
2023-04-02T06:46:12.449Z,44.98
2023-04-02T06:48:54.674Z,44.82
2023-04-02T06:51:21.312Z,44.81
2023-04-02T06:53:48.081Z,45.13
2023-04-02T06:56:16.090Z,45.06
2023-04-02T06:58:42.539Z,44.83
2023-04-02T07:01:09.113Z,45.04
2023-04-02T07:03:41.039Z,44.83
2023-04-02T07:06:20.248Z,44.82
2023-04-02T07:08:48.717Z,44.75
2023-04-02T07:11:16.267Z,45.10
2023-04-02T07:13:43.695Z,45.07
2023-04-02T07:16:10.310Z,45.17
2023-04-02T07:18:36.855Z,45.12
2023-04-02T07:21:05.757Z,45.17
2023-04-02T07:23:32.229Z,44.89
2023-04-02T07:25:58.560Z,44.93
2023-04-02T07:28:24.921Z,44.85
2023-04-02T07:30:51.318Z,44.90
2023-04-02T07:33:17.641Z,45.09
2023-04-02T07:35:44.182Z,45.02
2023-04-02T07:38:10.549Z,45.07
2023-04-02T07:40:36.841Z,44.71
2023-04-02T07:43:03.277Z,44.93
2023-04-02T07:45:29.586Z,45.04
2023-04-02T07:47:56.051Z,44.73
2023-04-02T07:50:22.519Z,44.89
2023-04-02T07:52:48.844Z,44.79
2023-04-02T07:55:15.197Z,44.53
2023-04-02T07:57:42.027Z,44.56
2023-04-02T08:00:09.475Z,44.51
2023-04-02T08:02:38.681Z,44.76
2023-04-02T08:05:05.043Z,44.66
2023-04-02T08:07:31.369Z,44.73
2023-04-02T08:09:57.699Z,44.38
2023-04-02T08:12:24.075Z,44.63
2023-04-02T08:14:50.400Z,44.46
2023-04-02T08:17:16.703Z,44.28
2023-04-02T08:19:54.186Z,44.13
2023-04-02T08:22:21.662Z,44.24
2023-04-02T08:24:48.041Z,44.24
2023-04-02T08:27:14.368Z,44.21
2023-04-02T08:29:40.740Z,43.99
2023-04-02T08:32:07.129Z,44.02
2023-04-02T08:34:33.509Z,43.88
2023-04-02T08:36:59.878Z,44.11
2023-04-02T08:39:26.293Z,44.06
2023-04-02T08:41:52.608Z,44.07
2023-04-02T08:44:18.996Z,43.70
2023-04-02T08:46:45.359Z,43.88
2023-04-02T08:49:11.670Z,43.96
2023-04-02T08:51:38.063Z,43.75
2023-04-02T08:54:04.756Z,43.91
2023-04-02T08:56:31.140Z,43.95
2023-04-02T08:58:57.460Z,43.68
2023-04-02T09:01:23.866Z,43.80
2023-04-02T09:03:50.185Z,43.81
2023-04-02T09:06:16.772Z,43.61
2023-04-02T09:08:43.257Z,43.82
2023-04-02T09:11:09.567Z,43.76
2023-04-02T09:13:35.921Z,44.01
2023-04-02T09:16:02.308Z,44.03
2023-04-02T09:18:28.741Z,43.85
2023-04-02T09:20:55.101Z,43.88
2023-04-02T09:23:21.489Z,44.05
2023-04-02T09:25:57.409Z,43.71
2023-04-02T09:28:29.660Z,43.92
2023-04-02T09:30:55.988Z,43.70
2023-04-02T09:33:22.323Z,43.88
2023-04-02T09:35:48.753Z,43.95
2023-04-02T09:38:15.079Z,43.75
2023-04-02T09:40:41.395Z,43.80
2023-04-02T09:43:07.760Z,43.93
2023-04-02T09:45:34.358Z,43.80
2023-04-02T09:48:00.915Z,44.09
2023-04-02T09:50:27.285Z,43.94
2023-04-02T09:52:53.593Z,44.07
2023-04-02T09:55:19.935Z,44.08
2023-04-02T09:57:46.317Z,44.42
2023-04-02T10:00:25.255Z,44.61
2023-04-02T10:02:57.513Z,44.78
2023-04-02T10:05:39.450Z,44.55
2023-04-02T10:08:06.704Z,44.50
2023-04-02T10:10:33.051Z,44.53
2023-04-02T10:12:59.394Z,44.59
2023-04-02T10:15:25.754Z,44.56
2023-04-02T10:17:52.081Z,44.53
2023-04-02T10:20:18.442Z,44.26
2023-04-02T10:22:44.800Z,44.50
2023-04-02T10:25:11.129Z,44.55
2023-04-02T10:27:37.448Z,44.37
2023-04-02T10:30:03.827Z,44.59
2023-04-02T10:32:30.189Z,44.33
2023-04-02T10:34:56.540Z,44.39
2023-04-02T10:37:22.906Z,44.49
2023-04-02T10:39:49.223Z,44.59
2023-04-02T10:42:15.550Z,44.46
2023-04-02T10:44:41.922Z,44.64
2023-04-02T10:47:08.276Z,44.39
2023-04-02T10:49:35.952Z,44.58
2023-04-02T10:52:02.374Z,44.64
2023-04-02T10:54:28.706Z,44.40
2023-04-02T10:56:55.107Z,44.57
2023-04-02T10:59:21.521Z,44.56
2023-04-02T11:01:47.893Z,44.34
2023-04-02T11:04:14.332Z,44.57
2023-04-02T11:06:40.724Z,44.55
2023-04-02T11:09:07.034Z,44.34
2023-04-02T11:11:33.352Z,44.60
2023-04-02T11:13:59.720Z,44.24
2023-04-02T11:16:26.174Z,44.29
2023-04-02T11:18:52.515Z,44.38
2023-04-02T11:21:18.877Z,44.21
2023-04-02T11:23:45.244Z,44.35
2023-04-02T11:26:11.547Z,44.26
2023-04-02T11:28:37.937Z,44.44
2023-04-02T11:31:04.343Z,44.09
2023-04-02T11:33:38.139Z,44.09
2023-04-02T11:36:05.719Z,44.21
2023-04-02T11:38:32.056Z,44.23
2023-04-02T11:40:58.446Z,44.05
2023-04-02T11:43:24.850Z,44.27
2023-04-02T11:45:53.475Z,44.42
2023-04-02T11:48:20.022Z,44.23
2023-04-02T11:50:46.743Z,44.10
2023-04-02T11:53:13.231Z,43.87
2023-04-02T11:55:39.809Z,43.79
2023-04-02T11:58:06.381Z,44.02
2023-04-02T12:00:32.717Z,43.94
2023-04-02T12:02:59.093Z,43.97
2023-04-02T12:05:25.521Z,44.05
2023-04-02T12:07:51.878Z,43.80
2023-04-02T12:10:18.235Z,43.86
2023-04-02T12:12:44.603Z,43.88
2023-04-02T12:15:10.913Z,43.79
2023-04-02T12:17:37.285Z,43.74
2023-04-02T12:20:05.634Z,43.98
2023-04-02T12:22:32.291Z,43.73
2023-04-02T12:24:58.605Z,43.97
2023-04-02T12:27:24.981Z,43.66
2023-04-02T12:29:51.297Z,43.76
2023-04-02T12:32:17.614Z,43.85
2023-04-02T12:34:43.992Z,43.85
2023-04-02T12:37:10.287Z,43.63
2023-04-02T12:39:36.627Z,43.54
2023-04-02T12:42:03.014Z,43.54
2023-04-02T12:44:29.330Z,43.56
2023-04-02T12:46:55.649Z,43.50
2023-04-02T12:49:22.017Z,43.73
2023-04-02T12:51:48.331Z,43.60
2023-04-02T12:54:14.645Z,43.57
2023-04-02T12:56:41.005Z,43.71
2023-04-02T12:59:07.339Z,43.57
2023-04-02T13:01:33.673Z,43.78
2023-04-02T13:04:00.221Z,43.55
2023-04-02T13:06:26.582Z,43.50
2023-04-02T13:08:52.969Z,43.80
2023-04-02T13:11:19.322Z,43.87
2023-04-02T13:13:45.654Z,43.81
2023-04-02T13:16:12.022Z,43.52
2023-04-02T13:18:38.407Z,43.77
2023-04-02T13:21:04.720Z,43.46
2023-04-02T13:23:31.050Z,43.42
2023-04-02T13:25:57.424Z,43.33
2023-04-02T13:28:23.780Z,43.54
2023-04-02T13:30:50.098Z,43.54
2023-04-02T13:33:16.504Z,43.29
2023-04-02T13:35:42.838Z,43.14
2023-04-02T13:38:09.224Z,43.18
2023-04-02T13:40:35.771Z,43.17
2023-04-02T13:43:02.225Z,43.33
2023-04-02T13:45:28.568Z,43.23
2023-04-02T13:47:55.024Z,43.27
2023-04-02T13:50:21.393Z,43.41
2023-04-02T13:52:47.721Z,43.17
2023-04-02T13:55:14.087Z,42.97
2023-04-02T13:57:40.406Z,43.22
2023-04-02T14:00:06.707Z,43.31
2023-04-02T14:02:33.082Z,43.13
2023-04-02T14:04:59.412Z,42.98
2023-04-02T14:07:25.738Z,43.37
2023-04-02T14:09:52.112Z,42.99
2023-04-02T14:12:18.449Z,43.12
2023-04-02T14:14:44.798Z,43.01
2023-04-02T14:17:11.173Z,43.17
2023-04-02T14:19:37.522Z,43.22
2023-04-02T14:22:03.844Z,43.03
2023-04-02T14:24:30.231Z,43.16
2023-04-02T14:26:56.567Z,43.09
2023-04-02T14:29:22.871Z,43.13
2023-04-02T14:31:49.229Z,43.41
2023-04-02T14:34:15.551Z,43.20
2023-04-02T14:36:41.887Z,43.28
2023-04-02T14:39:08.269Z,43.59
2023-04-02T14:41:34.609Z,43.20
2023-04-02T14:44:00.956Z,43.35
2023-04-02T14:46:27.415Z,43.09
2023-04-02T14:48:53.787Z,42.99
2023-04-02T14:51:20.127Z,43.09
2023-04-02T14:53:46.584Z,43.30
2023-04-02T14:56:12.940Z,43.11
2023-04-02T14:58:39.284Z,43.18
2023-04-02T15:01:05.693Z,43.18
2023-04-02T15:03:32.059Z,43.23
2023-04-02T15:05:58.449Z,43.25
2023-04-02T15:08:24.822Z,43.56
2023-04-02T15:10:51.165Z,43.45
2023-04-02T15:13:17.515Z,43.67
2023-04-02T15:15:43.879Z,43.20
2023-04-02T15:18:10.233Z,43.41
2023-04-02T15:20:36.726Z,43.33
2023-04-02T15:23:03.217Z,43.40
2023-04-02T15:25:29.531Z,43.25
2023-04-02T15:27:55.886Z,43.23
2023-04-02T15:30:22.253Z,43.15
2023-04-02T15:32:48.620Z,43.61
2023-04-02T15:35:15.017Z,43.49
2023-04-02T15:37:41.374Z,43.27
2023-04-02T15:40:07.720Z,43.64
2023-04-02T15:42:34.115Z,43.36
2023-04-02T15:45:00.505Z,43.54
2023-04-02T15:47:26.856Z,43.40
2023-04-02T15:49:53.179Z,43.29
2023-04-02T15:52:19.586Z,43.56
2023-04-02T15:54:45.919Z,43.42
2023-04-02T15:57:12.278Z,43.52
2023-04-02T15:59:38.710Z,43.77
2023-04-02T16:02:05.047Z,43.80
2023-04-02T16:04:31.495Z,43.80
2023-04-02T16:06:58.062Z,43.71
2023-04-02T16:09:24.380Z,43.67
2023-04-02T16:11:50.701Z,43.77
2023-04-02T16:14:17.060Z,43.75
2023-04-02T16:16:43.420Z,43.49
2023-04-02T16:19:16.766Z,43.54
2023-04-02T16:21:43.475Z,43.34
2023-04-02T16:24:09.804Z,43.69
2023-04-02T16:26:36.139Z,43.72
2023-04-02T16:29:02.498Z,43.72
2023-04-02T16:31:29.035Z,43.73
2023-04-02T16:33:55.411Z,43.54
2023-04-02T16:36:21.784Z,43.71
2023-04-02T16:38:48.147Z,43.56
2023-04-02T16:41:14.453Z,43.30
2023-04-02T16:43:40.801Z,43.65
2023-04-02T16:46:07.180Z,43.44
2023-04-02T16:48:33.492Z,43.43
2023-04-02T16:50:59.843Z,43.58
2023-04-02T16:53:26.194Z,43.62
2023-04-02T16:55:52.524Z,43.71
2023-04-02T16:58:18.896Z,43.46
2023-04-02T17:00:45.219Z,43.36
2023-04-02T17:03:11.666Z,43.67
2023-04-02T17:05:38.110Z,43.32
2023-04-02T17:08:04.653Z,43.35
2023-04-02T17:10:31.041Z,43.44
2023-04-02T17:12:57.402Z,43.22
2023-04-02T17:15:27.668Z,43.70
2023-04-02T17:17:55.056Z,43.73
2023-04-02T17:20:21.449Z,43.60
2023-04-02T17:22:47.825Z,43.51
2023-04-02T17:25:14.124Z,43.50
2023-04-02T17:27:40.491Z,43.55
2023-04-02T17:30:06.808Z,43.49
2023-04-02T17:32:33.240Z,43.54
2023-04-02T17:34:59.748Z,43.53
2023-04-02T17:37:26.084Z,43.68
2023-04-02T17:39:52.423Z,43.92
2023-04-02T17:42:18.803Z,43.81
2023-04-02T17:44:45.117Z,43.99
2023-04-02T17:47:11.558Z,43.98
2023-04-02T17:49:37.967Z,43.93
2023-04-02T17:52:04.339Z,44.08
2023-04-02T17:54:30.693Z,43.78
2023-04-02T17:56:57.088Z,44.08
2023-04-02T17:59:23.431Z,43.98
2023-04-02T18:01:49.769Z,44.18
2023-04-02T18:04:16.141Z,44.16
2023-04-02T18:06:42.477Z,44.09
2023-04-02T18:09:08.806Z,44.15
2023-04-02T18:11:35.210Z,44.22
2023-04-02T18:14:01.543Z,44.01
2023-04-02T18:16:27.903Z,44.25
2023-04-02T18:18:54.277Z,44.03
2023-04-02T18:21:20.629Z,43.93
2023-04-02T18:23:46.952Z,44.19
2023-04-02T18:26:13.343Z,44.29
2023-04-02T18:28:39.733Z,44.26
2023-04-02T18:31:06.111Z,44.41
2023-04-02T18:33:32.546Z,44.50
2023-04-02T18:35:58.950Z,44.53
2023-04-02T18:38:25.295Z,44.53
2023-04-02T18:40:51.667Z,44.69
2023-04-02T18:43:18.005Z,44.33
2023-04-02T18:45:44.334Z,44.42
2023-04-02T18:48:10.705Z,44.48
2023-04-02T18:50:37.186Z,44.27
2023-04-02T18:53:03.658Z,44.35
2023-04-02T18:55:30.007Z,44.23
2023-04-02T18:57:56.322Z,44.24
2023-04-02T19:00:22.648Z,44.53
2023-04-02T19:02:49.194Z,44.29
2023-04-02T19:05:15.587Z,44.40
2023-04-02T19:07:41.922Z,44.38
2023-04-02T19:10:08.297Z,44.38
2023-04-02T19:12:34.608Z,44.23
2023-04-02T19:15:00.912Z,44.25
2023-04-02T19:17:27.341Z,44.11
2023-04-02T19:19:53.687Z,44.28
2023-04-02T19:22:20.026Z,44.09
2023-04-02T19:24:46.378Z,44.18
2023-04-02T19:27:12.690Z,44.12
2023-04-02T19:29:39.028Z,44.10
2023-04-02T19:32:05.391Z,44.18
2023-04-02T19:34:31.715Z,44.14
2023-04-02T19:36:58.021Z,44.42
2023-04-02T19:39:24.410Z,44.56
2023-04-02T19:41:50.700Z,44.11
2023-04-02T19:44:17.005Z,44.38
2023-04-02T19:46:43.403Z,44.35
2023-04-02T19:49:09.762Z,44.52
2023-04-02T19:51:36.080Z,44.42
2023-04-02T19:54:02.480Z,44.60
2023-04-02T19:56:28.820Z,44.48
2023-04-02T19:58:56.661Z,44.70
2023-04-02T20:01:23.167Z,44.69
2023-04-02T20:03:49.550Z,44.59
2023-04-02T20:06:15.934Z,44.49
2023-04-02T20:08:42.299Z,44.51
2023-04-02T20:11:08.609Z,44.46
2023-04-02T20:13:34.932Z,44.61
2023-04-02T20:16:01.299Z,44.66
2023-04-02T20:18:27.624Z,44.60
2023-04-02T20:20:53.959Z,44.98
2023-04-02T20:23:20.343Z,45.00
2023-04-02T20:25:46.704Z,44.72
2023-04-02T20:28:13.045Z,44.88
2023-04-02T20:30:39.568Z,45.00
2023-04-02T20:33:06.005Z,45.12
2023-04-02T20:35:32.463Z,44.98
2023-04-02T20:37:58.840Z,45.35
2023-04-02T20:40:25.155Z,44.97
2023-04-02T20:42:51.494Z,45.13
2023-04-02T20:45:17.875Z,45.55
2023-04-02T20:47:44.206Z,45.59
2023-04-02T20:50:10.551Z,45.29
2023-04-02T20:52:36.924Z,45.44
2023-04-02T20:55:03.241Z,45.33
2023-04-02T20:57:29.641Z,45.31
2023-04-02T20:59:56.047Z,45.23
2023-04-02T21:02:22.357Z,45.44
2023-04-02T21:04:48.745Z,45.31
2023-04-02T21:07:15.167Z,45.18
2023-04-02T21:09:41.484Z,45.42
2023-04-02T21:12:07.810Z,45.51
2023-04-02T21:14:34.175Z,45.47
2023-04-02T21:17:00.494Z,45.48
2023-04-02T21:19:26.793Z,45.51
2023-04-02T21:21:53.156Z,45.40
2023-04-02T21:24:19.454Z,45.22
2023-04-02T21:26:45.770Z,45.41
2023-04-02T21:29:12.178Z,45.29
2023-04-02T21:31:38.567Z,45.08
2023-04-02T21:34:04.938Z,45.23
2023-04-02T21:36:31.313Z,45.05
2023-04-02T21:38:57.665Z,45.31
2023-04-02T21:41:24.023Z,45.20
2023-04-02T21:43:50.387Z,45.33
2023-04-02T21:46:16.773Z,45.19
2023-04-02T21:48:43.139Z,45.21
2023-04-02T21:51:09.514Z,45.32
2023-04-02T21:53:35.872Z,45.20
2023-04-02T21:56:02.200Z,45.16
2023-04-02T21:58:28.545Z,44.98
2023-04-02T22:00:54.926Z,45.40
2023-04-02T22:03:31.083Z,45.21
2023-04-02T22:05:58.206Z,45.30
2023-04-02T22:08:24.533Z,45.26
2023-04-02T22:10:50.878Z,45.18
2023-04-02T22:13:17.308Z,45.55
2023-04-02T22:15:43.604Z,45.65
2023-04-02T22:18:09.913Z,45.79
2023-04-02T22:20:36.409Z,45.80
2023-04-02T22:23:02.843Z,45.86
2023-04-02T22:25:29.158Z,46.01
2023-04-02T22:27:55.526Z,45.93
2023-04-02T22:30:21.857Z,45.85
2023-04-02T22:32:48.202Z,46.00
2023-04-02T22:35:14.564Z,46.23
2023-04-02T22:37:40.898Z,46.06
2023-04-02T22:40:07.214Z,46.07
2023-04-02T22:42:33.676Z,46.46
2023-04-02T22:44:59.990Z,46.51
2023-04-02T22:47:26.333Z,46.45
2023-04-02T22:49:52.699Z,46.59
2023-04-02T22:52:19.065Z,46.23
2023-04-02T22:54:45.370Z,46.64
2023-04-02T22:57:11.785Z,46.40
2023-04-02T22:59:38.120Z,46.58
2023-04-02T23:02:04.469Z,46.69
2023-04-02T23:04:30.842Z,46.50
2023-04-02T23:06:57.165Z,46.55
2023-04-02T23:09:23.495Z,46.56
2023-04-02T23:11:49.864Z,46.65
2023-04-02T23:14:16.192Z,46.57
2023-04-02T23:16:42.498Z,46.49
2023-04-02T23:19:08.883Z,46.59
2023-04-02T23:21:35.226Z,46.42
2023-04-02T23:24:01.543Z,46.55
2023-04-02T23:26:27.922Z,46.68
2023-04-02T23:28:54.248Z,46.53
2023-04-02T23:31:20.614Z,46.47
2023-04-02T23:33:47.022Z,46.44
2023-04-02T23:36:13.395Z,46.65
2023-04-02T23:38:39.788Z,46.64
2023-04-02T23:41:06.200Z,46.61
2023-04-02T23:43:32.514Z,46.69
2023-04-02T23:45:58.883Z,46.63
2023-04-02T23:48:25.268Z,46.35
2023-04-02T23:50:51.602Z,46.45
2023-04-02T23:53:17.985Z,46.41
2023-04-02T23:55:44.345Z,46.47
2023-04-02T23:58:10.647Z,46.61
